sensor_id;sensor_type;location;lat;lon;timestamp;pressure;altitude;pressure_sealevel;temperature;humidity
35704;BME280;21820;51.112;13.762;2022-08-21T00:00:11;99356.31;;;26.25;58.79
35704;BME280;21820;51.112;13.762;2022-08-21T00:02:37;99357.13;;;26.26;58.51
35704;BME280;21820;51.112;13.762;2022-08-21T00:05:03;99359.78;;;26.26;58.23
35704;BME280;21820;51.112;13.762;2022-08-21T00:07:29;99351.03;;;26.25;59.30
35704;BME280;21820;51.112;13.762;2022-08-21T00:09:54;99350.84;;;26.27;58.89
35704;BME280;21820;51.112;13.762;2022-08-21T00:12:20;99336.28;;;26.16;59.28
35704;BME280;21820;51.112;13.762;2022-08-21T00:14:46;99338.88;;;26.24;58.86
35704;BME280;21820;51.112;13.762;2022-08-21T00:17:12;99343.97;;;26.26;58.91
35704;BME280;21820;51.112;13.762;2022-08-21T00:19:37;99348.22;;;26.27;58.62
35704;BME280;21820;51.112;13.762;2022-08-21T00:22:03;99350.03;;;26.26;57.80
35704;BME280;21820;51.112;13.762;2022-08-21T00:24:28;99354.31;;;26.27;59.06
35704;BME280;21820;51.112;13.762;2022-08-21T00:26:54;99351.34;;;26.00;55.10
35704;BME280;21820;51.112;13.762;2022-08-21T00:29:19;99354.84;;;25.92;54.71
35704;BME280;21820;51.112;13.762;2022-08-21T00:31:45;99345.94;;;26.01;56.56
35704;BME280;21820;51.112;13.762;2022-08-21T00:34:12;99348.34;;;26.11;58.57
35704;BME280;21820;51.112;13.762;2022-08-21T00:36:38;99348.81;;;26.14;58.61
35704;BME280;21820;51.112;13.762;2022-08-21T00:39:07;99346.47;;;26.19;59.40
35704;BME280;21820;51.112;13.762;2022-08-21T00:41:36;99352.41;;;26.21;59.02
35704;BME280;21820;51.112;13.762;2022-08-21T00:44:03;99352.22;;;26.23;58.33
35704;BME280;21820;51.112;13.762;2022-08-21T00:46:29;99353.00;;;26.23;58.87
35704;BME280;21820;51.112;13.762;2022-08-21T00:48:55;99338.09;;;26.16;58.65
35704;BME280;21820;51.112;13.762;2022-08-21T00:51:24;99349.41;;;26.24;59.72
35704;BME280;21820;51.112;13.762;2022-08-21T00:53:55;99359.94;;;26.24;60.11
35704;BME280;21820;51.112;13.762;2022-08-21T00:56:22;99355.66;;;26.23;58.11
35704;BME280;21820;51.112;13.762;2022-08-21T00:58:49;99361.56;;;26.25;57.59
35704;BME280;21820;51.112;13.762;2022-08-21T01:01:16;99355.47;;;26.25;59.12
35704;BME280;21820;51.112;13.762;2022-08-21T01:03:42;99349.47;;;26.16;58.35
35704;BME280;21820;51.112;13.762;2022-08-21T01:06:07;99364.22;;;26.25;59.36
35704;BME280;21820;51.112;13.762;2022-08-21T01:08:34;99370.50;;;26.24;59.08
35704;BME280;21820;51.112;13.762;2022-08-21T01:11:00;99365.22;;;26.24;59.28
35704;BME280;21820;51.112;13.762;2022-08-21T01:13:28;99363.66;;;26.07;56.70
35704;BME280;21820;51.112;13.762;2022-08-21T01:15:56;99356.69;;;25.84;55.18
35704;BME280;21820;51.112;13.762;2022-08-21T01:18:23;99364.66;;;25.98;55.92
35704;BME280;21820;51.112;13.762;2022-08-21T01:21:07;99366.97;;;26.09;59.80
35704;BME280;21820;51.112;13.762;2022-08-21T01:23:35;99359.53;;;26.13;58.15
35704;BME280;21820;51.112;13.762;2022-08-21T01:26:01;99355.34;;;26.18;58.39
35704;BME280;21820;51.112;13.762;2022-08-21T01:28:28;99354.72;;;26.16;58.36
35704;BME280;21820;51.112;13.762;2022-08-21T01:30:56;99361.94;;;26.22;58.53
35704;BME280;21820;51.112;13.762;2022-08-21T01:33:24;99359.94;;;26.24;58.95
35704;BME280;21820;51.112;13.762;2022-08-21T01:35:50;99362.75;;;26.23;58.39
35704;BME280;21820;51.112;13.762;2022-08-21T01:38:16;99359.13;;;26.24;58.42
35704;BME280;21820;51.112;13.762;2022-08-21T01:40:42;99355.66;;;26.23;58.87
35704;BME280;21820;51.112;13.762;2022-08-21T01:43:07;99359.94;;;26.24;58.18
35704;BME280;21820;51.112;13.762;2022-08-21T01:45:33;99361.56;;;26.25;58.11
35704;BME280;21820;51.112;13.762;2022-08-21T01:47:58;99353.84;;;26.24;58.46
35704;BME280;21820;51.112;13.762;2022-08-21T01:50:23;99359.13;;;26.24;59.21
35704;BME280;21820;51.112;13.762;2022-08-21T01:52:49;99356.66;;;26.22;58.93
35704;BME280;21820;51.112;13.762;2022-08-21T01:55:16;99356.66;;;26.22;59.08
35704;BME280;21820;51.112;13.762;2022-08-21T01:57:42;99357.50;;;26.23;59.14
35704;BME280;21820;51.112;13.762;2022-08-21T02:00:10;99351.91;;;25.87;54.82
35704;BME280;21820;51.112;13.762;2022-08-21T02:02:36;99365.72;;;25.89;54.29
35704;BME280;21820;51.112;13.762;2022-08-21T02:05:03;99358.25;;;26.01;57.21
35704;BME280;21820;51.112;13.762;2022-08-21T02:07:39;99355.41;;;26.10;59.37
35704;BME280;21820;51.112;13.762;2022-08-21T02:10:07;99360.16;;;26.15;59.24
35704;BME280;21820;51.112;13.762;2022-08-21T02:12:33;99352.09;;;26.16;57.66
35704;BME280;21820;51.112;13.762;2022-08-21T02:14:58;99340.91;;;26.14;58.67
35704;BME280;21820;51.112;13.762;2022-08-21T02:17:24;99354.84;;;26.23;57.48
35704;BME280;21820;51.112;13.762;2022-08-21T02:19:49;99358.28;;;26.23;58.31
35704;BME280;21820;51.112;13.762;2022-08-21T02:22:14;99355.47;;;26.25;58.14
35704;BME280;21820;51.112;13.762;2022-08-21T02:24:40;99350.38;;;26.23;58.54
35704;BME280;21820;51.112;13.762;2022-08-21T02:27:05;99351.38;;;26.22;58.61
35704;BME280;21820;51.112;13.762;2022-08-21T02:29:30;99352.22;;;26.23;58.06
35704;BME280;21820;51.112;13.762;2022-08-21T02:31:56;99344.13;;;26.24;59.07
35704;BME280;21820;51.112;13.762;2022-08-21T02:34:21;99350.38;;;26.23;58.45
35704;BME280;21820;51.112;13.762;2022-08-21T02:36:46;99352.22;;;26.23;59.57
35704;BME280;21820;51.112;13.762;2022-08-21T02:39:12;99354.69;;;26.24;59.46
35704;BME280;21820;51.112;13.762;2022-08-21T02:41:37;99352.22;;;26.23;58.64
35704;BME280;21820;51.112;13.762;2022-08-21T02:44:03;99351.56;;;26.21;59.31
35704;BME280;21820;51.112;13.762;2022-08-21T02:46:28;99354.56;;;26.18;57.66
35704;BME280;21820;51.112;13.762;2022-08-21T02:48:53;99349.44;;;25.86;54.78
35704;BME280;21820;51.112;13.762;2022-08-21T02:51:19;99352.19;;;25.92;55.18
35704;BME280;21820;51.112;13.762;2022-08-21T02:53:46;99341.94;;;26.05;58.18
35704;BME280;21820;51.112;13.762;2022-08-21T02:56:17;99342.25;;;26.10;59.17
35704;BME280;21820;51.112;13.762;2022-08-21T02:58:47;99337.44;;;26.14;58.73
35704;BME280;21820;51.112;13.762;2022-08-21T03:01:13;99335.09;;;26.19;58.28
35704;BME280;21820;51.112;13.762;2022-08-21T03:03:42;99335.09;;;26.19;58.97
35704;BME280;21820;51.112;13.762;2022-08-21T03:06:09;99334.75;;;26.22;58.94
35704;BME280;21820;51.112;13.762;2022-08-21T03:08:35;99328.69;;;26.21;58.09
35704;BME280;21820;51.112;13.762;2022-08-21T03:11:01;99333.13;;;26.21;59.14
35704;BME280;21820;51.112;13.762;2022-08-21T03:13:27;99331.31;;;26.21;59.09
35704;BME280;21820;51.112;13.762;2022-08-21T03:15:53;99329.72;;;26.12;59.15
35704;BME280;21820;51.112;13.762;2022-08-21T03:18:18;99330.47;;;26.21;58.02
35704;BME280;21820;51.112;13.762;2022-08-21T03:20:44;99333.94;;;26.21;58.41
35704;BME280;21820;51.112;13.762;2022-08-21T03:23:10;99344.50;;;26.21;58.88
35704;BME280;21820;51.112;13.762;2022-08-21T03:25:36;99352.50;;;26.28;60.58
35704;BME280;21820;51.112;13.762;2022-08-21T03:28:05;99357.50;;;26.23;59.89
35704;BME280;21820;51.112;13.762;2022-08-21T03:30:31;99367.19;;;26.22;59.45
35704;BME280;21820;51.112;13.762;2022-08-21T03:32:58;99359.28;;;26.22;59.17
35704;BME280;21820;51.112;13.762;2022-08-21T03:35:24;99360.44;;;25.89;55.19
35704;BME280;21820;51.112;13.762;2022-08-21T03:37:50;99358.00;;;25.88;55.08
35704;BME280;21820;51.112;13.762;2022-08-21T03:40:17;99363.19;;;26.04;57.94
35704;BME280;21820;51.112;13.762;2022-08-21T03:42:43;99357.41;;;26.08;58.36
35704;BME280;21820;51.112;13.762;2022-08-21T03:45:09;99360.31;;;26.13;58.01
35704;BME280;21820;51.112;13.762;2022-08-21T03:47:35;99361.63;;;26.17;57.48
35704;BME280;21820;51.112;13.762;2022-08-21T03:50:02;99354.38;;;26.19;58.30
35704;BME280;21820;51.112;13.762;2022-08-21T03:52:28;99362.94;;;26.21;58.52
35704;BME280;21820;51.112;13.762;2022-08-21T03:54:54;99354.19;;;26.21;58.50
35704;BME280;21820;51.112;13.762;2022-08-21T03:57:19;99355.81;;;26.22;58.38
35704;BME280;21820;51.112;13.762;2022-08-21T03:59:44;99356.66;;;26.22;58.66
35704;BME280;21820;51.112;13.762;2022-08-21T04:02:10;99357.00;;;26.19;59.57
35704;BME280;21820;51.112;13.762;2022-08-21T04:04:38;99358.00;;;26.18;58.86
35704;BME280;21820;51.112;13.762;2022-08-21T04:07:04;99371.16;;;26.18;58.99
35704;BME280;21820;51.112;13.762;2022-08-21T04:09:29;99364.91;;;26.19;59.36
35704;BME280;21820;51.112;13.762;2022-08-21T04:11:56;99376.91;;;26.22;59.52
35704;BME280;21820;51.112;13.762;2022-08-21T04:14:21;99375.28;;;26.21;59.38
35704;BME280;21820;51.112;13.762;2022-08-21T04:16:47;99375.09;;;26.22;58.70
35704;BME280;21820;51.112;13.762;2022-08-21T04:19:13;99376.13;;;26.21;58.91
35704;BME280;21820;51.112;13.762;2022-08-21T04:21:39;99379.25;;;25.86;55.16
35704;BME280;21820;51.112;13.762;2022-08-21T04:24:06;99359.84;;;25.79;54.18
35704;BME280;21820;51.112;13.762;2022-08-21T04:26:33;99374.91;;;26.01;57.41
35704;BME280;21820;51.112;13.762;2022-08-21T04:28:59;99381.09;;;26.08;58.14
35704;BME280;21820;51.112;13.762;2022-08-21T04:31:24;99371.22;;;26.10;58.48
35704;BME280;21820;51.112;13.762;2022-08-21T04:33:50;99365.28;;;26.08;58.39
35704;BME280;21820;51.112;13.762;2022-08-21T04:36:16;99370.38;;;26.18;58.59
35704;BME280;21820;51.112;13.762;2022-08-21T04:38:42;99376.25;;;26.20;58.46
35704;BME280;21820;51.112;13.762;2022-08-21T04:41:07;99375.47;;;26.19;58.33
35704;BME280;21820;51.112;13.762;2022-08-21T04:43:33;99376.25;;;26.20;59.04
35704;BME280;21820;51.112;13.762;2022-08-21T04:45:58;99365.78;;;26.12;59.45
35704;BME280;21820;51.112;13.762;2022-08-21T04:48:25;99383.50;;;26.26;60.45
35704;BME280;21820;51.112;13.762;2022-08-21T04:55:59;99378.09;;;26.19;58.89
35704;BME280;21820;51.112;13.762;2022-08-21T04:58:26;99378.28;;;26.18;58.35
35704;BME280;21820;51.112;13.762;2022-08-21T05:00:53;99387.94;;;26.25;60.98
35704;BME280;21820;51.112;13.762;2022-08-21T05:03:19;99388.28;;;26.22;58.19
35704;BME280;21820;51.112;13.762;2022-08-21T05:05:45;99390.28;;;26.20;59.28
35704;BME280;21820;51.112;13.762;2022-08-21T05:08:12;99387.41;;;25.99;56.65
35704;BME280;21820;51.112;13.762;2022-08-21T05:10:39;99396.03;;;25.85;54.75
35704;BME280;21820;51.112;13.762;2022-08-21T05:13:06;99402.72;;;25.96;55.55
35704;BME280;21820;51.112;13.762;2022-08-21T05:15:31;99399.72;;;26.07;60.12
35704;BME280;21820;51.112;13.762;2022-08-21T05:17:57;99394.94;;;26.10;58.22
35704;BME280;21820;51.112;13.762;2022-08-21T05:20:23;99384.41;;;26.10;58.51
35704;BME280;21820;51.112;13.762;2022-08-21T05:22:48;99387.69;;;26.12;58.83
35704;BME280;21820;51.112;13.762;2022-08-21T05:25:14;99384.03;;;26.13;58.90
35704;BME280;21820;51.112;13.762;2022-08-21T05:27:39;99396.91;;;26.16;58.24
35704;BME280;21820;51.112;13.762;2022-08-21T05:30:09;99394.25;;;26.16;59.03
35704;BME280;21820;51.112;13.762;2022-08-21T05:32:35;99404.63;;;26.18;58.63
35704;BME280;21820;51.112;13.762;2022-08-21T05:35:01;99398.34;;;26.19;58.59
35704;BME280;21820;51.112;13.762;2022-08-21T05:37:26;99394.88;;;26.18;58.23
35704;BME280;21820;51.112;13.762;2022-08-21T05:39:52;99402.00;;;26.18;59.22
35704;BME280;21820;51.112;13.762;2022-08-21T05:42:17;99398.53;;;26.17;58.32
35704;BME280;21820;51.112;13.762;2022-08-21T05:44:43;99400.34;;;26.17;58.55
35704;BME280;21820;51.112;13.762;2022-08-21T05:47:10;99402.78;;;26.18;59.41
35704;BME280;21820;51.112;13.762;2022-08-21T05:49:36;99404.81;;;26.16;58.85
35704;BME280;21820;51.112;13.762;2022-08-21T05:52:02;99383.75;;;26.08;58.91
35704;BME280;21820;51.112;13.762;2022-08-21T05:54:28;99400.16;;;26.18;58.89
35704;BME280;21820;51.112;13.762;2022-08-21T05:56:53;99399.56;;;26.00;56.18
35704;BME280;21820;51.112;13.762;2022-08-21T05:59:19;99402.47;;;25.83;54.61
35704;BME280;21820;51.112;13.762;2022-08-21T06:01:44;99404.72;;;25.94;55.76
35704;BME280;21820;51.112;13.762;2022-08-21T06:04:11;99398.63;;;26.01;58.12
35704;BME280;21820;51.112;13.762;2022-08-21T06:06:36;99400.56;;;26.07;58.24
35704;BME280;21820;51.112;13.762;2022-08-21T06:09:02;99404.50;;;26.11;59.22
35704;BME280;21820;51.112;13.762;2022-08-21T06:11:28;99393.66;;;26.06;58.71
35704;BME280;21820;51.112;13.762;2022-08-21T06:13:53;99403.97;;;26.16;59.11
35704;BME280;21820;51.112;13.762;2022-08-21T06:16:18;99401.88;;;26.11;58.57
35704;BME280;21820;51.112;13.762;2022-08-21T06:18:45;99418.59;;;26.18;58.61
35704;BME280;21820;51.112;13.762;2022-08-21T06:21:11;99417.63;;;26.19;59.38
35704;BME280;21820;51.112;13.762;2022-08-21T06:23:37;99412.72;;;26.16;59.43
35704;BME280;21820;51.112;13.762;2022-08-21T06:26:04;99418.59;;;26.18;58.79
35704;BME280;21820;51.112;13.762;2022-08-21T06:28:31;99410.06;;;26.16;59.11
35704;BME280;21820;51.112;13.762;2022-08-21T06:30:56;99415.34;;;26.16;59.73
35704;BME280;21820;51.112;13.762;2022-08-21T06:33:22;99405.44;;;26.18;59.16
35704;BME280;21820;51.112;13.762;2022-08-21T06:35:47;99408.06;;;26.18;58.38
35704;BME280;21820;51.112;13.762;2022-08-21T06:38:13;99396.72;;;26.18;59.08
35704;BME280;21820;51.112;13.762;2022-08-21T06:40:38;99394.25;;;26.16;58.80
35704;BME280;21820;51.112;13.762;2022-08-21T06:43:07;99389.78;;;26.17;58.75
35704;BME280;21820;51.112;13.762;2022-08-21T06:45:32;99393.88;;;25.89;54.99
35704;BME280;21820;51.112;13.762;2022-08-21T06:47:58;99396.38;;;25.82;54.57
35704;BME280;21820;51.112;13.762;2022-08-21T06:50:23;99400.28;;;25.94;56.69
35704;BME280;21820;51.112;13.762;2022-08-21T06:52:49;99392.34;;;26.02;57.97
35704;BME280;21820;51.112;13.762;2022-08-21T06:55:14;99396.13;;;26.08;58.16
35704;BME280;21820;51.112;13.762;2022-08-21T06:57:40;99407.13;;;26.11;58.81
35704;BME280;21820;51.112;13.762;2022-08-21T07:00:06;99413.69;;;26.15;57.71
35704;BME280;21820;51.112;13.762;2022-08-21T07:02:33;99416.31;;;26.15;58.44
35704;BME280;21820;51.112;13.762;2022-08-21T07:04:59;99415.34;;;26.16;58.44
35704;BME280;21820;51.112;13.762;2022-08-21T07:07:24;99399.41;;;26.10;58.26
35704;BME280;21820;51.112;13.762;2022-08-21T07:09:49;99416.16;;;26.17;58.38
35704;BME280;21820;51.112;13.762;2022-08-21T07:12:15;99406.44;;;26.17;58.66
35704;BME280;21820;51.112;13.762;2022-08-21T07:14:40;99402.78;;;26.18;58.24
35704;BME280;21820;51.112;13.762;2022-08-21T07:17:05;99400.50;;;26.15;58.97
35704;BME280;21820;51.112;13.762;2022-08-21T07:19:31;99394.25;;;26.16;58.41
35704;BME280;21820;51.112;13.762;2022-08-21T07:21:58;99395.25;;;26.15;58.88
35704;BME280;21820;51.112;13.762;2022-08-21T07:24:25;99403.16;;;26.15;57.66
35704;BME280;21820;51.112;13.762;2022-08-21T07:26:50;99404.81;;;26.16;58.96
35704;BME280;21820;51.112;13.762;2022-08-21T07:29:16;99398.53;;;26.17;58.88
35704;BME280;21820;51.112;13.762;2022-08-21T07:31:42;99410.88;;;26.17;58.31
35704;BME280;21820;51.112;13.762;2022-08-21T07:34:07;99388.50;;;25.74;54.59
35704;BME280;21820;51.112;13.762;2022-08-21T07:36:33;99402.59;;;25.89;55.17
35704;BME280;21820;51.112;13.762;2022-08-21T07:38:58;99394.53;;;25.91;57.31
35704;BME280;21820;51.112;13.762;2022-08-21T07:41:26;99397.94;;;25.99;58.29
35704;BME280;21820;51.112;13.762;2022-08-21T07:43:53;99413.72;;;26.07;58.56
35704;BME280;21820;51.112;13.762;2022-08-21T07:46:19;99404.53;;;26.03;58.76
35704;BME280;21820;51.112;13.762;2022-08-21T07:48:44;99428.66;;;26.15;58.25
35704;BME280;21820;51.112;13.762;2022-08-21T07:51:12;99428.03;;;26.13;59.28
35704;BME280;21820;51.112;13.762;2022-08-21T07:53:38;99422.59;;;26.14;59.34
35704;BME280;21820;51.112;13.762;2022-08-21T07:56:05;99420.13;;;26.13;58.71
35704;BME280;21820;51.112;13.762;2022-08-21T07:58:32;99434.75;;;26.15;57.76
35704;BME280;21820;51.112;13.762;2022-08-21T08:00:57;99424.22;;;26.15;58.57
35704;BME280;21820;51.112;13.762;2022-08-21T08:03:23;99424.22;;;26.15;58.65
35704;BME280;21820;51.112;13.762;2022-08-21T08:05:49;99433.94;;;26.15;58.71
35704;BME280;21820;51.112;13.762;2022-08-21T08:08:14;99431.16;;;26.16;58.95
35704;BME280;21820;51.112;13.762;2022-08-21T08:10:39;99424.22;;;26.15;59.01
35704;BME280;21820;51.112;13.762;2022-08-21T08:13:05;99435.59;;;26.16;58.64
35704;BME280;21820;51.112;13.762;2022-08-21T08:15:31;99423.28;;;26.08;58.77
35704;BME280;21820;51.112;13.762;2022-08-21T08:17:56;99437.41;;;26.15;58.54
35704;BME280;21820;51.112;13.762;2022-08-21T08:20:23;99429.94;;;25.80;54.87
35704;BME280;21820;51.112;13.762;2022-08-21T08:22:52;99429.50;;;25.77;54.31
35704;BME280;21820;51.112;13.762;2022-08-21T08:25:18;99433.16;;;25.98;56.96
35704;BME280;21820;51.112;13.762;2022-08-21T08:27:44;99439.06;;;26.08;60.18
35704;BME280;21820;51.112;13.762;2022-08-21T08:30:11;99427.56;;;26.09;58.69
35704;BME280;21820;51.112;13.762;2022-08-21T08:32:37;99437.94;;;26.11;58.20
35704;BME280;21820;51.112;13.762;2022-08-21T08:35:04;99437.75;;;26.12;58.52
35704;BME280;21820;51.112;13.762;2022-08-21T08:37:29;99442.97;;;26.20;60.59
35704;BME280;21820;51.112;13.762;2022-08-21T08:39:54;99436.75;;;26.13;58.52
35704;BME280;21820;51.112;13.762;2022-08-21T08:42:35;99444.47;;;26.15;60.09
35704;BME280;21820;51.112;13.762;2022-08-21T08:45:12;99442.03;;;26.13;60.34
35704;BME280;21820;51.112;13.762;2022-08-21T08:47:49;99447.28;;;26.13;58.88
35704;BME280;21820;51.112;13.762;2022-08-21T08:50:25;99442.03;;;26.13;59.55
35704;BME280;21820;51.112;13.762;2022-08-21T08:52:58;99442.84;;;26.14;60.26
35704;BME280;21820;51.112;13.762;2022-08-21T08:55:52;99438.09;;;26.09;60.92
35704;BME280;21820;51.112;13.762;2022-08-21T09:00:51;99449.94;;;26.13;59.57
35704;BME280;21820;51.112;13.762;2022-08-21T09:03:17;99444.66;;;26.13;59.83
35704;BME280;21820;51.112;13.762;2022-08-21T09:05:56;99446.84;;;26.02;56.60
35704;BME280;21820;51.112;13.762;2022-08-21T09:11:48;99439.13;;;25.92;58.94
35704;BME280;21820;51.112;13.762;2022-08-21T09:14:39;99443.25;;;26.03;59.84
35704;BME280;21820;51.112;13.762;2022-08-21T09:20:11;99439.06;;;26.08;60.27
35704;BME280;21820;51.112;13.762;2022-08-21T09:25:20;99432.47;;;26.12;59.73
35704;BME280;21820;51.112;13.762;2022-08-21T09:27:47;99435.13;;;26.12;58.83
35704;BME280;21820;51.112;13.762;2022-08-21T09:30:13;99428.84;;;26.13;59.01
35704;BME280;21820;51.112;13.762;2022-08-21T09:32:40;99423.75;;;26.12;59.92
35704;BME280;21820;51.112;13.762;2022-08-21T09:35:16;99415.06;;;26.03;59.80
35704;BME280;21820;51.112;13.762;2022-08-21T09:37:47;99426.38;;;26.12;59.84
35704;BME280;21820;51.112;13.762;2022-08-21T09:40:32;99418.34;;;26.05;60.40
35704;BME280;21820;51.112;13.762;2022-08-21T09:43:05;99419.31;;;26.12;59.78
35704;BME280;21820;51.112;13.762;2022-08-21T09:45:31;99426.22;;;26.13;58.94
35704;BME280;21820;51.112;13.762;2022-08-21T09:48:09;99429.84;;;26.12;61.02
35704;BME280;21820;51.112;13.762;2022-08-21T09:50:34;99426.22;;;26.13;58.44
35704;BME280;21820;51.112;13.762;2022-08-21T09:53:00;99431.47;;;26.13;58.67
35704;BME280;21820;51.112;13.762;2022-08-21T09:55:33;99419.75;;;25.77;54.87
35704;BME280;21820;51.112;13.762;2022-08-21T09:58:18;99429.63;;;25.83;55.20
35704;BME280;21820;51.112;13.762;2022-08-21T10:00:45;99422.97;;;25.95;57.70
35704;BME280;21820;51.112;13.762;2022-08-21T10:03:22;99424.97;;;26.01;58.19
35704;BME280;21820;51.112;13.762;2022-08-21T10:06:08;99422.28;;;26.09;60.17
35704;BME280;21820;51.112;13.762;2022-08-21T10:08:38;99417.84;;;26.10;58.82
35704;BME280;21820;51.112;13.762;2022-08-21T10:11:10;99417.69;;;26.11;60.20
35704;BME280;21820;51.112;13.762;2022-08-21T10:16:27;99423.56;;;26.13;59.11
35704;BME280;21820;51.112;13.762;2022-08-21T10:22:14;99431.47;;;26.13;60.41
35704;BME280;21820;51.112;13.762;2022-08-21T10:25:23;99427.03;;;26.14;60.92
35704;BME280;21820;51.112;13.762;2022-08-21T10:28:13;99430.50;;;26.14;60.44
35704;BME280;21820;51.112;13.762;2022-08-21T10:30:44;99429.00;;;26.12;58.92
35704;BME280;21820;51.112;13.762;2022-08-21T10:36:33;99421.28;;;26.10;60.54
35704;BME280;21820;51.112;13.762;2022-08-21T10:47:06;99416.44;;;25.91;57.90
35704;BME280;21820;51.112;13.762;2022-08-21T10:49:43;99411.28;;;25.98;58.02
35704;BME280;21820;51.112;13.762;2022-08-21T10:52:24;99408.16;;;26.02;59.83
35704;BME280;21820;51.112;13.762;2022-08-21T10:54:56;99414.75;;;26.06;59.42
35704;BME280;21820;51.112;13.762;2022-08-21T10:57:41;99418.00;;;26.08;60.08
35704;BME280;21820;51.112;13.762;2022-08-21T11:00:13;99421.28;;;26.10;59.65
35704;BME280;21820;51.112;13.762;2022-08-21T11:02:45;99408.16;;;26.02;59.97
35704;BME280;21820;51.112;13.762;2022-08-21T11:05:24;99423.91;;;26.10;58.48
35704;BME280;21820;51.112;13.762;2022-08-21T11:10:48;99420.50;;;26.10;60.58
35704;BME280;21820;51.112;13.762;2022-08-21T11:16:07;99424.94;;;26.09;60.50
35704;BME280;21820;51.112;13.762;2022-08-21T11:18:57;99426.56;;;26.10;60.76
35704;BME280;21820;51.112;13.762;2022-08-21T11:21:43;99425.75;;;26.10;60.73
35704;BME280;21820;51.112;13.762;2022-08-21T11:26:44;99425.91;;;26.08;60.42
35704;BME280;21820;51.112;13.762;2022-08-21T11:29:23;99414.81;;;25.82;54.67
35704;BME280;21820;51.112;13.762;2022-08-21T11:37:23;99420.66;;;26.00;59.81
35704;BME280;21820;51.112;13.762;2022-08-21T11:51:00;99419.66;;;26.09;58.04
35704;BME280;21820;51.112;13.762;2022-08-21T11:56:21;99414.38;;;26.09;60.56
35704;BME280;21820;51.112;13.762;2022-08-21T11:58:51;99408.47;;;26.07;59.51
35704;BME280;21820;51.112;13.762;2022-08-21T12:01:23;99405.00;;;26.07;59.88
35704;BME280;21820;51.112;13.762;2022-08-21T12:03:58;99410.09;;;26.08;60.30
35704;BME280;21820;51.112;13.762;2022-08-21T12:06:34;99404.81;;;26.08;60.66
35704;BME280;21820;51.112;13.762;2022-08-21T12:09:05;99399.91;;;26.05;59.84
35704;BME280;21820;51.112;13.762;2022-08-21T12:11:31;99407.63;;;26.07;59.01
35704;BME280;21820;51.112;13.762;2022-08-21T12:16:40;99403.31;;;25.75;54.92
35704;BME280;21820;51.112;13.762;2022-08-21T12:21:51;99404.88;;;25.92;59.32
35704;BME280;21820;51.112;13.762;2022-08-21T12:24:19;99397.94;;;25.99;58.83
35704;BME280;21820;51.112;13.762;2022-08-21T12:26:54;99392.34;;;26.02;60.17
35704;BME280;21820;51.112;13.762;2022-08-21T12:29:26;99387.75;;;25.96;59.10
35704;BME280;21820;51.112;13.762;2022-08-21T12:32:02;99401.38;;;26.08;59.32
35704;BME280;21820;51.112;13.762;2022-08-21T12:37:04;99396.91;;;26.08;59.23
35704;BME280;21820;51.112;13.762;2022-08-21T12:39:33;99387.22;;;26.09;59.24
35704;BME280;21820;51.112;13.762;2022-08-21T12:42:11;99388.03;;;26.09;60.43
35704;BME280;21820;51.112;13.762;2022-08-21T12:44:48;99388.03;;;26.09;59.81
35704;BME280;21820;51.112;13.762;2022-08-21T12:50:08;99388.88;;;26.10;60.66
35704;BME280;21820;51.112;13.762;2022-08-21T12:52:51;99393.31;;;26.09;60.62
35704;BME280;21820;51.112;13.762;2022-08-21T12:55:27;99399.41;;;26.10;61.09
35704;BME280;21820;51.112;13.762;2022-08-21T12:57:53;99383.59;;;26.10;59.57
35704;BME280;21820;51.112;13.762;2022-08-21T13:00:23;99379.31;;;26.09;59.88
35704;BME280;21820;51.112;13.762;2022-08-21T13:02:50;99379.28;;;25.78;55.33
35704;BME280;21820;51.112;13.762;2022-08-21T13:05:28;99375.03;;;25.69;54.71
35704;BME280;21820;51.112;13.762;2022-08-21T13:07:53;99386.78;;;25.89;56.81
35704;BME280;21820;51.112;13.762;2022-08-21T13:10:29;99377.03;;;25.98;60.27
35704;BME280;21820;51.112;13.762;2022-08-21T13:13:02;99370.13;;;25.97;59.94
35704;BME280;21820;51.112;13.762;2022-08-21T13:15:30;99375.53;;;26.03;57.97
35704;BME280;21820;51.112;13.762;2022-08-21T13:17:57;99373.72;;;26.04;58.75
35704;BME280;21820;51.112;13.762;2022-08-21T13:20:39;99373.56;;;26.05;60.39
35704;BME280;21820;51.112;13.762;2022-08-21T13:23:27;99372.59;;;26.06;61.16
35704;BME280;21820;51.112;13.762;2022-08-21T13:25:54;99373.56;;;26.05;59.11
35704;BME280;21820;51.112;13.762;2022-08-21T13:28:19;99380.31;;;26.08;58.80
35704;BME280;21820;51.112;13.762;2022-08-21T13:30:51;99376.84;;;26.07;60.50
35704;BME280;21820;51.112;13.762;2022-08-21T13:33:19;99376.19;;;26.05;58.98
35704;BME280;21820;51.112;13.762;2022-08-21T13:35:52;99370.13;;;26.05;60.19
35704;BME280;21820;51.112;13.762;2022-08-21T13:38:27;99379.84;;;26.04;60.46
35704;BME280;21820;51.112;13.762;2022-08-21T13:40:57;99384.09;;;26.05;60.15
35704;BME280;21820;51.112;13.762;2022-08-21T13:43:30;99379.84;;;26.04;60.69
35704;BME280;21820;51.112;13.762;2022-08-21T13:45:56;99366.31;;;25.99;59.47
35704;BME280;21820;51.112;13.762;2022-08-21T13:48:25;99370.63;;;25.92;56.82
35704;BME280;21820;51.112;13.762;2022-08-21T13:50:51;99368.09;;;25.76;55.26
35704;BME280;21820;51.112;13.762;2022-08-21T13:53:28;99364.81;;;25.74;56.62
35704;BME280;21820;51.112;13.762;2022-08-21T13:55:54;99381.84;;;25.94;57.68
35704;BME280;21820;51.112;13.762;2022-08-21T13:58:27;99380.31;;;26.00;59.79
35704;BME280;21820;51.112;13.762;2022-08-21T14:00:53;99379.84;;;26.04;58.67
35704;BME280;21820;51.112;13.762;2022-08-21T14:03:42;99376.84;;;26.07;60.85
35704;BME280;21820;51.112;13.762;2022-08-21T14:06:12;99377.69;;;26.08;58.44
35704;BME280;21820;51.112;13.762;2022-08-21T14:08:40;99375.22;;;26.06;58.44